Time;durP1;ratioP1;P1;durP2;ratioP2;P2;SDS_P1;SDS_P2;PMS_P1;PMS_P2;Temp;Humidity;BMP_temperature;BMP_pressure;BME280_temperature;BME280_humidity;BME280_pressure;Samples;Min_cycle;Max_cycle;Signal;HPM_P1;HPM_P2
2021/01/19 00:01:47;;;;;;;5.87;5.07;;;1.80;99.90;;;2.44;77.98;98560.44;5227260;28;20200;-73
2021/01/19 00:04:19;;;;;;;4.63;4.33;;;1.80;99.90;;;2.35;79.20;98566.19;5227930;28;20500;-73
2021/01/19 00:06:51;;;;;;;6.43;4.60;;;1.70;99.90;;;2.44;78.30;98567.09;5226896;28;20211;-72
2021/01/19 00:09:23;;;;;;;4.57;4.27;;;1.70;99.90;;;2.37;77.85;98573.16;5227613;28;20234;-73
2021/01/19 00:11:55;;;;;;;6.07;4.27;;;1.70;99.90;;;2.39;77.64;98558.19;5226808;28;20197;-73
2021/01/19 00:14:27;;;;;;;4.90;4.50;;;1.60;99.90;;;2.34;77.56;98551.78;5227179;28;20546;-74
2021/01/19 00:17:00;;;;;;;4.60;4.30;;;1.70;99.90;;;2.41;77.08;98557.59;5227860;28;20206;-73
2021/01/19 00:19:32;;;;;;;4.87;4.17;;;1.60;99.90;;;2.42;78.80;98561.00;5227386;28;20201;-73
2021/01/19 00:22:04;;;;;;;4.87;4.47;;;1.60;99.90;;;2.32;77.69;98558.28;5227447;28;20792;-73
2021/01/19 00:24:36;;;;;;;4.40;4.10;;;1.60;99.90;;;2.32;78.80;98553.25;5226494;28;20196;-73
2021/01/19 00:27:08;;;;;;;4.70;4.30;;;1.60;99.90;;;2.35;77.91;98544.38;5227401;28;20288;-73
2021/01/19 00:29:40;;;;;;;4.30;4.00;;;1.60;99.90;;;2.36;79.33;98540.22;5227024;28;20304;-73
2021/01/19 00:32:13;;;;;;;3.87;3.57;;;1.60;99.90;;;2.35;79.45;98549.44;5227071;28;20259;-73
2021/01/19 00:34:45;;;;;;;4.50;4.10;;;1.60;99.90;;;2.32;79.34;98544.09;5227681;28;20290;-73
2021/01/19 00:37:17;;;;;;;4.67;4.27;;;1.60;99.90;;;2.26;79.35;98540.91;5226893;28;20199;-72
2021/01/19 00:39:49;;;;;;;4.50;4.10;;;1.50;99.90;;;2.22;79.18;98543.88;5226597;28;20200;-73
2021/01/19 00:42:21;;;;;;;3.80;3.50;;;1.50;99.90;;;2.28;79.35;98541.09;5226345;28;20232;-73
2021/01/19 00:44:53;;;;;;;4.13;3.73;;;1.50;99.90;;;2.28;79.43;98536.03;5227790;28;20204;-73
2021/01/19 00:47:26;;;;;;;4.60;4.20;;;1.50;99.90;;;2.23;79.39;98528.00;5226715;28;20219;-73
2021/01/19 00:49:58;;;;;;;4.10;3.80;;;1.50;99.90;;;2.30;79.35;98535.47;5227711;28;20229;-73
2021/01/19 00:52:30;;;;;;;3.87;3.63;;;1.50;99.90;;;2.22;78.40;98531.28;5226184;28;20355;-74
2021/01/19 00:55:02;;;;;;;4.63;3.97;;;1.50;99.90;;;2.27;77.69;98529.22;5225209;28;20201;-73
2021/01/19 00:57:34;;;;;;;3.73;3.43;;;1.50;99.90;;;2.16;77.93;98523.09;5223869;28;20197;-73
2021/01/19 01:00:08;;;;;;;4.67;4.27;;;1.50;99.90;;;2.18;78.73;98509.91;5213059;28;20618;-74
2021/01/19 01:02:41;;;;;;;4.13;3.83;;;1.50;99.90;;;2.24;78.65;98515.56;5224577;28;20217;-73
2021/01/19 01:05:13;;;;;;;4.20;3.90;;;1.50;99.90;;;2.23;76.91;98517.91;5225182;28;20287;-73
2021/01/19 01:07:46;;;;;;;4.33;3.20;;;1.50;99.90;;;2.19;77.30;98520.88;5206363;28;20203;-73
2021/01/19 01:10:18;;;;;;;3.73;3.53;;;1.50;99.90;;;2.30;79.05;98511.88;5225664;28;20227;-73
2021/01/19 01:12:50;;;;;;;4.63;4.30;;;1.50;99.90;;;2.24;77.41;98515.56;5225971;28;20216;-73
2021/01/19 01:15:32;;;;;;;4.10;3.80;;;1.50;99.90;;;2.27;78.15;98511.56;5227023;28;20200;-71
2021/01/19 01:18:11;;;;;;;3.77;3.47;;;1.50;99.90;;;2.25;77.77;98519.84;5226159;28;20548;-73
2021/01/19 01:20:43;;;;;;;4.40;4.10;;;1.50;99.90;;;2.33;78.32;98510.53;5227150;28;20196;-73
2021/01/19 01:23:15;;;;;;;4.20;3.47;;;1.50;99.90;;;2.38;77.18;98513.53;5225059;28;20210;-73
2021/01/19 01:25:47;;;;;;;3.57;3.27;;;1.50;99.90;;;2.32;78.82;98512.91;5226222;28;20288;-73
2021/01/19 01:28:19;;;;;;;3.63;3.33;;;1.60;99.90;;;2.32;78.62;98507.84;5225039;28;20213;-73
2021/01/19 01:30:51;;;;;;;3.87;3.57;;;1.50;99.90;;;2.21;77.43;98505.19;5226410;28;20315;-73
2021/01/19 01:33:24;;;;;;;4.63;4.33;;;1.50;99.90;;;2.28;77.46;98500.75;5225950;28;20227;-72
2021/01/19 01:35:56;;;;;;;5.17;4.23;;;1.50;99.90;;;2.25;79.17;98487.06;5226965;28;20296;-75
2021/01/19 01:38:29;;;;;;;3.97;3.60;;;1.50;99.90;;;2.28;78.80;98490.66;5225654;28;20544;-73
2021/01/19 01:41:01;;;;;;;4.10;3.80;;;1.50;99.90;;;2.23;79.05;98492.72;5225563;28;20197;-72
2021/01/19 01:43:33;;;;;;;4.00;3.57;;;1.50;99.90;;;2.22;78.89;98496.88;5226114;28;20586;-73
2021/01/19 01:46:05;;;;;;;4.07;3.27;;;1.40;99.90;;;2.25;78.48;98492.13;5225250;28;20204;-73
2021/01/19 01:48:39;;;;;;;3.93;3.63;;;1.40;99.90;;;2.24;79.34;98492.88;5225980;28;20201;-73
2021/01/19 01:51:12;;;;;;;4.37;3.80;;;1.40;99.90;;;2.19;80.17;98491.50;5224382;28;20291;-73
2021/01/19 01:53:44;;;;;;;4.87;3.77;;;1.40;99.90;;;2.15;79.22;98493.59;5226131;28;20220;-73
2021/01/19 01:56:17;;;;;;;3.70;3.50;;;1.40;99.90;;;2.18;78.07;98492.28;5224623;28;20204;-73
2021/01/19 01:58:52;;;;;;;3.80;3.40;;;1.30;99.90;;;2.23;78.01;98485.13;5226004;28;20231;-71
2021/01/19 02:01:24;;;;;;;4.00;3.60;;;1.30;99.90;;;2.20;77.64;98483.22;5209872;28;20623;-72
2021/01/19 02:03:57;;;;;;;3.87;3.67;;;1.30;99.90;;;2.08;78.44;98469.38;5205298;28;20308;-73
2021/01/19 02:06:30;;;;;;;4.97;3.57;;;1.30;99.90;;;2.04;78.79;98464.78;5220646;28;20197;-73
2021/01/19 02:09:09;;;;;;;4.30;3.93;;;1.20;99.90;;;2.10;77.88;98474.59;5225781;28;20306;-73
2021/01/19 02:11:53;;;;;;;3.83;3.53;;;1.20;99.90;;;2.12;78.43;98466.44;5222446;28;20724;-73
2021/01/19 02:14:34;;;;;;;3.83;3.37;;;1.30;99.90;;;2.08;77.81;98461.81;5225192;28;20305;-73
2021/01/19 02:17:15;;;;;;;4.87;3.40;;;1.20;99.90;;;2.26;77.36;98447.63;5222801;28;20572;-73
2021/01/19 02:20:45;;;;;;;4.23;3.83;;;1.20;99.90;;;2.35;76.04;98448.53;5224579;28;20566;-72
2021/01/19 02:23:36;;;;;;;3.27;3.03;;;1.30;99.90;;;2.40;75.29;98439.75;5223603;28;20233;-73
2021/01/19 02:26:53;;;;;;;3.70;3.40;;;1.40;99.90;;;2.24;75.80;98434.88;5215855;28;20226;-72
2021/01/19 02:30:01;;;;;;;3.53;3.33;;;1.30;99.90;;;2.35;75.10;98428.38;5224424;28;20221;-73
2021/01/19 02:32:45;;;;;;;3.80;3.50;;;1.30;99.90;;;2.23;74.70;98432.19;5223881;28;20234;-73
2021/01/19 02:35:25;;;;;;;4.13;3.80;;;1.30;99.90;;;2.13;76.17;98425.38;5223844;28;20197;-73
2021/01/19 02:38:06;;;;;;;3.97;3.67;;;1.30;99.90;;;2.14;75.93;98418.69;5224138;28;20283;-73
2021/01/19 02:40:39;;;;;;;5.20;4.50;;;1.20;99.90;;;2.02;76.68;98410.81;5223154;28;20204;-72
2021/01/19 02:43:19;;;;;;;3.87;3.57;;;1.20;99.90;;;1.89;76.90;98413.75;5222981;28;20726;-73
2021/01/19 02:45:52;;;;;;;3.70;3.40;;;1.10;99.90;;;1.88;77.53;98414.47;5224300;28;20218;-73
2021/01/19 02:48:27;;;;;;;4.10;3.77;;;1.00;99.90;;;1.77;78.30;98417.56;5223544;28;20572;-72
2021/01/19 02:50:59;;;;;;;4.20;3.90;;;1.00;99.90;;;1.73;78.29;98416.38;5222705;28;20218;-73
2021/01/19 02:53:31;;;;;;;4.00;3.73;;;0.90;99.90;;;1.65;79.09;98419.75;5223275;28;20216;-72
2021/01/19 02:56:05;;;;;;;4.37;4.07;;;0.90;99.90;;;1.60;79.07;98418.38;5223277;28;20200;-71
2021/01/19 02:58:49;;;;;;;3.77;3.47;;;0.80;99.90;;;1.51;79.88;98423.41;5224001;28;20201;-73
2021/01/19 03:01:26;;;;;;;3.73;3.47;;;0.70;99.90;;;1.50;80.02;98415.72;5222893;28;20231;-73
2021/01/19 03:04:01;;;;;;;4.50;3.50;;;0.70;99.90;;;1.40;81.25;98420.53;5223562;28;20809;-72
2021/01/19 03:06:33;;;;;;;3.70;3.40;;;0.60;99.90;;;1.34;80.81;98414.16;5223502;28;20210;-73
2021/01/19 03:09:06;;;;;;;4.37;3.97;;;0.60;99.90;;;1.29;80.74;98417.84;5223941;28;20715;-73
2021/01/19 03:11:41;;;;;;;4.27;3.97;;;0.50;99.90;;;1.27;81.45;98421.81;5203725;28;560859;-73
2021/01/19 03:14:13;;;;;;;4.10;3.83;;;0.50;99.90;;;1.30;81.71;98414.56;5223842;28;20205;-72
2021/01/19 03:16:46;;;;;;;4.67;3.90;;;0.50;99.90;;;1.32;81.57;98415.63;5224452;28;20290;-73
2021/01/19 03:19:20;;;;;;;4.37;4.07;;;0.60;99.90;;;1.42;80.76;98419.97;5223688;28;20682;-72
2021/01/19 03:21:52;;;;;;;3.97;3.53;;;0.60;99.90;;;1.53;79.94;98416.91;5224086;28;20211;-73
2021/01/19 03:24:24;;;;;;;4.23;3.83;;;0.60;99.90;;;1.59;79.13;98419.13;5223921;28;20206;-72
2021/01/19 03:26:56;;;;;;;4.10;3.80;;;0.60;99.90;;;1.72;78.79;98411.19;5223426;28;20284;-73
2021/01/19 03:29:28;;;;;;;3.70;3.40;;;0.70;99.90;;;1.69;77.79;98408.34;5224244;28;20246;-73
2021/01/19 03:32:00;;;;;;;3.93;3.57;;;0.70;99.90;;;1.62;78.82;98414.41;5222503;28;20198;-73
2021/01/19 03:34:33;;;;;;;4.83;3.73;;;0.70;99.90;;;1.57;78.63;98418.09;5226969;28;20290;-72
2021/01/19 03:37:05;;;;;;;4.23;3.93;;;0.70;99.90;;;1.62;78.52;98414.41;5229206;28;20196;-73
2021/01/19 03:39:37;;;;;;;4.40;4.03;;;0.70;99.90;;;1.73;78.62;98407.94;5226189;28;20241;-72
2021/01/19 03:42:09;;;;;;;4.20;3.80;;;0.70;99.90;;;1.83;77.58;98405.56;5227980;28;20587;-73
2021/01/19 03:44:42;;;;;;;4.33;4.03;;;0.80;99.90;;;1.75;77.92;98402.31;5226945;28;20203;-73
2021/01/19 03:47:14;;;;;;;4.77;4.30;;;0.80;99.90;;;1.77;77.75;98394.88;5228670;28;20203;-73
2021/01/19 03:49:47;;;;;;;4.30;3.90;;;0.80;99.90;;;1.72;78.32;98383.47;5227329;28;20230;-72
2021/01/19 03:52:19;;;;;;;3.40;3.10;;;0.80;99.90;;;1.82;76.82;98382.75;5227235;28;20227;-73
2021/01/19 03:54:51;;;;;;;3.97;3.67;;;0.80;99.90;;;1.75;77.41;98379.63;5228130;28;20627;-73
2021/01/19 03:57:23;;;;;;;3.93;3.73;;;0.80;99.90;;;1.64;77.85;98384.34;5228106;28;20228;-73
2021/01/19 03:59:55;;;;;;;3.97;3.60;;;0.80;99.90;;;1.60;77.45;98378.09;5227365;28;20193;-73
2021/01/19 04:02:27;;;;;;;3.90;3.63;;;0.80;99.90;;;1.59;77.76;98386.38;5227160;28;20228;-73
2021/01/19 04:05:00;;;;;;;4.03;3.47;;;0.80;99.90;;;1.53;78.42;98385.78;5228360;28;20215;-72
2021/01/19 04:07:33;;;;;;;3.77;3.37;;;0.80;99.90;;;1.55;79.05;98395.28;5226955;28;20201;-73
2021/01/19 04:10:07;;;;;;;4.80;3.90;;;0.80;99.90;;;1.52;78.63;98389.06;5227063;28;20660;-73
2021/01/19 04:12:40;;;;;;;4.47;4.07;;;0.80;99.90;;;1.54;78.58;98378.38;5227090;28;20599;-72
2021/01/19 04:15:13;;;;;;;6.27;4.00;;;0.80;99.90;;;1.49;78.69;98378.69;5227325;28;20254;-73
2021/01/19 04:17:45;;;;;;;6.17;3.80;;;0.70;99.90;;;1.48;78.28;98369.31;5207563;28;20326;-76
2021/01/19 04:20:18;;;;;;;4.50;4.20;;;0.70;99.90;;;1.51;78.63;98374.66;5221464;28;20191;-73
2021/01/19 04:22:50;;;;;;;4.53;3.50;;;0.60;99.90;;;1.46;79.12;98373.31;5227450;28;20224;-73
2021/01/19 04:25:22;;;;;;;4.43;4.23;;;0.60;99.90;;;1.48;78.79;98361.75;5227123;28;20207;-73
2021/01/19 04:27:54;;;;;;;4.53;4.20;;;0.60;99.90;;;1.40;78.65;98352.53;5227276;28;20303;-72
2021/01/19 04:30:27;;;;;;;4.60;4.20;;;0.60;99.90;;;1.39;78.79;98359.22;5225810;28;20255;-73
2021/01/19 04:32:59;;;;;;;4.10;3.80;;;0.60;99.90;;;1.34;78.05;98363.81;5227195;28;20241;-73
2021/01/19 04:35:32;;;;;;;3.97;3.67;;;0.50;99.90;;;1.33;78.26;98356.97;5226992;28;20231;-71
2021/01/19 04:38:04;;;;;;;4.60;4.20;;;0.50;99.90;;;1.42;77.46;98357.00;5226934;28;20210;-73
2021/01/19 04:40:37;;;;;;;4.33;4.00;;;0.50;99.90;;;1.52;76.96;98353.78;5226632;28;20209;-73
2021/01/19 04:43:12;;;;;;;4.97;4.47;;;0.60;99.90;;;1.35;77.84;98340.41;5226917;28;20240;-73
2021/01/19 04:45:46;;;;;;;4.30;3.90;;;0.60;99.90;;;1.46;76.88;98350.63;5227149;28;20710;-73
2021/01/19 04:48:20;;;;;;;4.10;3.73;;;0.50;99.90;;;1.35;77.58;98340.41;5226773;28;20208;-73
2021/01/19 04:50:54;;;;;;;5.40;4.60;;;0.50;99.90;;;1.29;78.07;98334.75;5226748;28;20227;-73
2021/01/19 04:53:29;;;;;;;4.53;4.13;;;0.40;99.90;;;1.26;76.83;98339.50;5225932;28;20222;-73
2021/01/19 04:56:04;;;;;;;4.20;3.90;;;0.40;99.90;;;1.31;76.47;98339.94;5227009;28;20213;-73
2021/01/19 04:58:37;;;;;;;5.00;4.60;;;0.40;99.90;;;1.22;77.38;98337.38;5226801;28;20202;-70
2021/01/19 05:01:21;;;;;;;4.87;4.27;;;0.40;99.90;;;1.23;76.62;98334.16;5225050;28;20198;-71
2021/01/19 05:03:57;;;;;;;4.20;3.87;;;0.40;99.90;;;1.09;77.81;98321.81;5227367;28;20215;-75
2021/01/19 05:07:32;;;;;;;5.00;4.60;;;0.30;99.90;;;1.12;78.27;98309.53;5226600;28;20313;-76
2021/01/19 05:10:08;;;;;;;3.97;3.77;;;0.30;99.90;;;1.17;78.23;98310.84;5225578;28;20586;-72
2021/01/19 05:12:42;;;;;;;4.80;4.40;;;0.30;99.90;;;1.12;78.09;98300.34;5225456;28;20718;-72
2021/01/19 05:15:16;;;;;;;4.60;4.30;;;0.30;99.90;;;1.08;78.91;98292.31;5226439;28;20192;-73
2021/01/19 05:17:53;;;;;;;4.47;4.13;;;0.30;99.90;;;1.05;79.28;98302.97;5226085;28;20197;-73
2021/01/19 05:20:31;;;;;;;4.00;3.63;;;0.30;99.90;;;1.09;79.87;98307.59;5226803;28;20579;-76
2021/01/19 05:23:03;;;;;;;4.47;4.10;;;0.30;99.90;;;1.10;79.23;98296.78;5226337;28;20218;-73
2021/01/19 05:25:35;;;;;;;4.57;4.17;;;0.30;99.90;;;1.10;78.95;98296.78;5223956;28;20300;-73
2021/01/19 05:28:07;;;;;;;5.37;4.97;;;0.30;99.90;;;1.15;79.32;98294.72;5226622;28;20199;-72
2021/01/19 05:30:41;;;;;;;4.80;4.40;;;0.30;99.90;;;1.15;78.66;98283.78;5225764;28;20231;-73
2021/01/19 05:33:15;;;;;;;4.20;3.93;;;0.40;99.90;;;1.13;78.38;98274.41;5226397;28;20224;-73
2021/01/19 05:35:47;;;;;;;4.30;4.00;;;0.40;99.90;;;1.20;78.01;98270.00;5227088;28;20290;-73
2021/01/19 05:38:20;;;;;;;4.57;4.27;;;0.40;99.90;;;1.14;78.46;98272.78;5224823;28;20282;-73
2021/01/19 05:40:52;;;;;;;6.27;5.67;;;0.40;99.90;;;1.22;78.08;98264.38;5214896;28;20198;-73
2021/01/19 05:43:27;;;;;;;6.53;5.40;;;0.40;99.90;;;1.17;78.02;98257.09;5226573;28;20223;-73
2021/01/19 05:45:59;;;;;;;5.47;5.07;;;0.40;99.90;;;1.15;78.13;98259.47;5226518;28;20294;-73
2021/01/19 05:48:38;;;;;;;4.53;4.13;;;0.30;99.90;;;1.13;79.05;98248.38;5226140;28;20642;-71
2021/01/19 05:51:13;;;;;;;5.97;5.47;;;0.40;99.90;;;1.06;79.35;98238.41;5225089;28;20748;-72
2021/01/19 05:53:52;;;;;;;5.10;4.43;;;0.30;99.90;;;1.07;78.51;98235.19;5225562;28;20659;-73
2021/01/19 05:56:25;;;;;;;4.97;4.57;;;0.40;99.90;;;1.00;78.79;98227.75;5224891;28;20199;-73
2021/01/19 05:58:57;;;;;;;4.83;4.43;;;0.30;99.90;;;0.92;78.21;98226.09;5225727;28;20209;-71
2021/01/19 06:01:31;;;;;;;5.97;4.60;;;0.20;99.90;;;1.02;76.88;98226.28;5223998;28;20202;-72
2021/01/19 06:04:04;;;;;;;4.70;4.30;;;0.30;99.90;;;1.12;76.24;98219.78;5225360;28;20588;-73
2021/01/19 06:06:37;;;;;;;5.40;4.90;;;0.30;99.90;;;1.20;75.51;98214.59;5224989;28;20190;-73
2021/01/19 06:09:12;;;;;;;3.97;3.67;;;0.30;99.90;;;1.41;73.20;98218.38;5226230;28;20325;-71
2021/01/19 06:11:51;;;;;;;5.50;4.93;;;0.60;99.90;;;1.20;75.30;98212.97;5218055;28;20579;-73
2021/01/19 06:14:25;;;;;;;5.07;4.70;;;0.50;99.90;;;1.07;76.07;98205.84;5207819;28;20650;-73
2021/01/19 06:17:12;;;;;;;4.83;4.43;;;0.40;99.90;;;0.99;77.37;98205.84;5224182;28;20192;-74
2021/01/19 06:19:44;;;;;;;5.13;4.73;;;0.30;99.90;;;0.91;77.95;98197.53;5225739;28;20201;-74
2021/01/19 06:22:19;;;;;;;4.77;4.37;;;0.30;99.90;;;0.98;77.38;98199.03;5224350;28;20222;-72
2021/01/19 06:24:54;;;;;;;5.03;4.60;;;0.20;99.90;;;0.94;76.71;98202.84;5225323;28;20259;-74
2021/01/19 06:27:30;;;;;;;5.27;4.80;;;0.20;99.90;;;0.88;77.84;98200.63;5226006;28;20743;-73
2021/01/19 06:30:11;;;;;;;5.63;5.17;;;0.20;99.90;;;0.81;78.16;98195.72;5224794;28;20219;-73
2021/01/19 06:32:48;;;;;;;6.10;5.60;;;0.10;99.90;;;0.78;78.80;98195.44;5224493;28;20325;-73
2021/01/19 06:35:23;;;;;;;6.60;6.00;;;0.10;99.90;;;0.75;79.18;98191.72;5225866;28;20637;-74
2021/01/19 06:37:55;;;;;;;7.57;6.87;;;0.10;99.90;;;0.72;79.34;98187.28;5225172;28;20196;-76
2021/01/19 06:40:32;;;;;;;6.40;5.90;;;0.00;99.90;;;0.77;79.79;98183.56;5225624;28;20276;-75
2021/01/19 06:43:06;;;;;;;7.27;6.67;;;0.00;99.90;;;0.83;79.65;98180.78;5224355;28;20214;-77
2021/01/19 06:45:42;;;;;;;7.57;6.80;;;0.10;99.90;;;0.81;79.32;98183.16;5225716;28;20205;-75
2021/01/19 06:48:17;;;;;;;6.47;5.97;;;0.00;99.90;;;0.75;79.55;98182.56;5224867;28;20290;-75
2021/01/19 06:50:56;;;;;;;6.67;6.13;;;0.10;99.90;;;0.78;80.39;98180.34;5225366;28;20218;-76
2021/01/19 06:53:38;;;;;;;6.00;5.50;;;0.00;99.90;;;0.77;80.28;98178.53;5223645;28;20664;-75
2021/01/19 06:56:15;;;;;;;5.33;4.90;;;0.00;99.90;;;0.78;80.25;98180.34;5221601;28;20210;-76
2021/01/19 06:58:56;;;;;;;5.50;5.10;;;0.00;99.90;;;0.76;80.11;98159.16;5215425;28;20205;-75
2021/01/19 07:01:29;;;;;;;5.87;5.47;;;0.00;99.90;;;0.75;80.68;98166.56;5223923;28;20209;-77
2021/01/19 07:04:05;;;;;;;5.13;4.73;;;0.00;99.90;;;0.73;80.73;98176.47;5221416;28;20595;-73
2021/01/19 07:07:04;;;;;;;4.93;4.40;;;0.00;99.90;;;0.70;80.29;98173.66;5225008;28;20248;-75
2021/01/19 07:10:07;;;;;;;5.80;5.40;;;-0.10;99.90;;;0.71;80.45;98172.91;5225239;28;20295;-77
2021/01/19 07:12:56;;;;;;;7.03;5.30;;;-0.10;99.90;;;0.74;80.70;98162.25;5205240;28;20258;-75
2021/01/19 07:16:04;;;;;;;6.23;5.20;;;-0.10;99.90;;;0.78;81.17;98150.16;5223815;28;20207;-74
2021/01/19 07:19:17;;;;;;;5.13;4.67;;;-0.10;99.90;;;0.80;80.91;98146.16;5214955;28;20194;-77
2021/01/19 07:22:07;;;;;;;5.97;5.53;;;-0.10;99.90;;;0.93;80.50;98144.84;5218358;28;20220;-74
2021/01/19 07:24:42;;;;;;;5.70;5.27;;;-0.10;99.90;;;0.86;80.07;98143.38;5224056;28;20203;-72
2021/01/19 07:27:18;;;;;;;5.47;5.07;;;-0.10;99.90;;;0.74;80.62;98143.03;5224112;28;20198;-74
2021/01/19 07:29:52;;;;;;;5.10;4.70;;;-0.10;99.90;;;0.82;80.88;98146.31;5216643;28;20224;-74
2021/01/19 07:32:28;;;;;;;5.03;4.63;;;-0.20;99.90;;;0.81;80.25;98139.50;5208287;28;20717;-75
2021/01/19 07:35:01;;;;;;;5.50;5.10;;;-0.20;99.90;;;0.80;80.66;98145.25;5215183;28;20650;-77
2021/01/19 07:37:36;;;;;;;5.77;5.17;;;-0.20;99.90;;;0.82;80.09;98144.66;5211281;28;20289;-74
2021/01/19 07:40:18;;;;;;;9.30;7.23;;;-0.10;99.90;;;0.84;80.48;98142.31;5221612;28;20197;-74
2021/01/19 07:42:51;;;;;;;15.77;12.03;;;-0.10;99.90;;;0.90;79.64;98141.28;5220635;28;20221;-75
2021/01/19 07:45:32;;;;;;;11.97;10.63;;;-0.10;99.90;;;0.91;79.48;98144.69;5221135;28;20665;-75
2021/01/19 07:48:07;;;;;;;6.47;5.90;;;-0.10;99.90;;;0.90;79.04;98126.19;5221495;28;20320;-75
2021/01/19 07:50:42;;;;;;;6.87;6.10;;;-0.10;99.90;;;0.97;79.31;98126.78;5220138;28;20704;-74
2021/01/19 07:53:14;;;;;;;6.00;5.60;;;-0.10;99.90;;;1.03;79.17;98122.34;5220533;28;20213;-76
2021/01/19 07:55:48;;;;;;;6.53;5.93;;;-0.10;99.90;;;0.97;79.29;98115.09;5215214;28;20205;-75
2021/01/19 07:58:22;;;;;;;6.07;5.57;;;0.00;99.90;;;0.98;80.09;98121.91;5208225;28;20234;-75
2021/01/19 08:00:57;;;;;;;5.87;5.37;;;0.10;99.90;;;1.08;79.17;98112.00;5218308;28;20194;-75
2021/01/19 08:03:30;;;;;;;6.37;5.77;;;0.10;99.90;;;1.16;78.21;98114.38;5213941;28;20214;-76
2021/01/19 08:06:09;;;;;;;6.23;5.73;;;0.20;99.90;;;1.18;78.12;98118.81;5221956;28;20203;-75
2021/01/19 08:08:41;;;;;;;5.97;5.50;;;0.20;99.90;;;1.15;78.12;98107.56;5204429;28;20225;-75
2021/01/19 08:11:22;;;;;;;6.30;5.70;;;0.30;99.90;;;1.25;78.62;98096.00;5220559;28;20222;-75
2021/01/19 08:14:09;;;;;;;6.00;5.40;;;0.30;99.90;;;1.29;77.43;98104.75;5220936;28;20263;-74
2021/01/19 08:16:48;;;;;;;5.93;5.53;;;0.40;99.90;;;1.40;77.78;98091.53;5204313;28;20205;-74
2021/01/19 08:19:20;;;;;;;5.83;5.20;;;0.40;99.90;;;1.44;75.26;98088.59;5213191;28;20556;-73
2021/01/19 08:21:54;;;;;;;6.23;5.63;;;0.50;99.90;;;1.51;75.16;98090.06;5225152;28;20201;-73
2021/01/19 08:24:26;;;;;;;5.33;4.93;;;0.50;99.90;;;1.63;74.67;98090.34;5224749;28;20199;-74
2021/01/19 08:26:58;;;;;;;6.90;5.63;;;0.60;99.90;;;1.67;74.17;98079.81;5224477;28;20660;-74
2021/01/19 08:29:36;;;;;;;6.40;5.77;;;0.60;99.90;;;1.62;75.01;98079.38;5212885;28;20569;-74
2021/01/19 08:32:09;;;;;;;5.57;5.17;;;0.60;99.90;;;1.64;74.99;98085.44;5224708;28;20226;-74
2021/01/19 08:34:43;;;;;;;5.43;5.03;;;0.60;99.90;;;1.66;73.66;98078.94;5223585;28;20283;-74
2021/01/19 08:37:18;;;;;;;6.07;5.40;;;0.70;99.90;;;1.75;74.13;98068.84;5223854;28;20298;-73
2021/01/19 08:39:53;;;;;;;5.47;5.13;;;0.70;99.90;;;1.79;73.33;98068.38;5212892;28;20203;-73
2021/01/19 08:42:41;;;;;;;6.27;5.63;;;0.80;99.90;;;1.93;74.46;98062.09;5215686;28;20221;-73
2021/01/19 08:45:21;;;;;;;5.67;4.97;;;1.00;99.90;;;2.10;73.17;98057.00;5224619;28;20211;-74
2021/01/19 08:47:56;;;;;;;7.47;5.50;;;1.20;99.90;;;2.33;70.50;98043.97;5224638;28;20207;-74
2021/01/19 08:50:31;;;;;;;6.07;5.57;;;1.30;99.90;;;2.37;70.53;98040.09;5223594;28;20719;-73
2021/01/19 08:53:08;;;;;;;5.70;5.20;;;1.40;99.90;;;2.55;69.33;98024.13;5224235;28;20303;-73
2021/01/19 08:55:42;;;;;;;6.40;5.90;;;1.60;99.90;;;2.83;69.00;98031.63;5224984;28;20205;-73
2021/01/19 08:58:20;;;;;;;5.93;4.80;;;1.90;99.90;;;3.02;66.84;98029.97;5223031;28;20255;-74
2021/01/19 09:00:52;;;;;;;5.40;4.90;;;2.10;99.90;;;3.23;67.74;98030.09;5223103;28;20212;-73
2021/01/19 09:03:25;;;;;;;5.70;5.20;;;2.30;99.90;;;3.44;67.13;98029.47;5223783;28;20279;-74
2021/01/19 09:06:12;;;;;;;5.50;5.10;;;2.60;99.90;;;3.57;66.23;98032.28;5222009;28;20203;-74
2021/01/19 09:08:45;;;;;;;5.30;4.80;;;2.70;99.90;;;3.64;65.46;98031.19;5220546;28;20617;-74
2021/01/19 09:11:17;;;;;;;5.90;5.00;;;2.60;99.90;;;3.71;64.84;98035.13;5221931;28;20221;-74
2021/01/19 09:14:06;;;;;;;5.73;5.03;;;2.50;99.90;;;3.68;65.16;98047.50;5220145;28;20594;-75
2021/01/19 09:16:40;;;;;;;6.63;5.47;;;2.60;99.90;;;3.81;64.89;98047.81;5223338;28;20198;-74
2021/01/19 09:19:13;;;;;;;5.70;5.23;;;2.60;99.90;;;3.88;64.47;98042.50;5223952;28;20206;-75
2021/01/19 09:21:46;;;;;;;5.47;4.97;;;2.50;99.90;;;3.69;64.75;98045.13;5223535;28;20203;-75
2021/01/19 09:24:21;;;;;;;5.60;5.10;;;2.40;99.90;;;3.78;64.71;98039.97;5219820;28;20312;-73
2021/01/19 09:27:00;;;;;;;6.97;6.00;;;2.40;99.90;;;3.68;64.88;98045.84;5222763;28;20531;-73
2021/01/19 09:29:34;;;;;;;6.07;5.47;;;2.40;99.90;;;3.56;64.06;98057.44;5223680;28;20296;-74
2021/01/19 09:32:06;;;;;;;5.77;5.17;;;2.30;99.90;;;3.47;64.92;98052.47;5220647;28;20220;-73
2021/01/19 09:34:41;;;;;;;6.97;6.00;;;2.20;99.90;;;3.54;64.70;98049.69;5223256;28;20200;-73
2021/01/19 09:37:13;;;;;;;7.57;5.90;;;2.20;99.90;;;3.51;64.66;98053.59;5223910;28;20550;-73
2021/01/19 09:39:46;;;;;;;6.43;5.67;;;2.20;99.90;;;3.56;65.41;98043.16;5223650;28;20215;-73
2021/01/19 09:42:19;;;;;;;6.20;5.70;;;2.30;99.90;;;3.66;64.87;98036.34;5217650;28;20221;-74
2021/01/19 09:44:52;;;;;;;6.10;5.47;;;2.20;99.90;;;3.52;65.19;98031.03;5216310;28;20193;-74
2021/01/19 09:47:26;;;;;;;6.00;5.37;;;2.20;99.90;;;3.49;65.48;98024.78;5207675;28;20292;-74
2021/01/19 09:49:59;;;;;;;6.07;5.47;;;2.20;99.90;;;3.51;65.68;98021.66;5223316;28;20198;-70
2021/01/19 09:52:32;;;;;;;6.40;5.80;;;2.30;99.90;;;3.57;65.94;98019.63;5223389;28;21808;-73
2021/01/19 09:55:09;;;;;;;6.27;5.70;;;2.30;99.90;;;3.55;66.17;98008.53;5207516;28;20257;-71
2021/01/19 09:57:42;;;;;;;7.37;6.67;;;2.30;99.90;;;3.52;66.18;98015.84;5222130;28;20713;-71
2021/01/19 10:00:15;;;;;;;7.90;6.07;;;2.40;99.90;;;3.60;65.42;98004.75;5222977;28;20243;-72
2021/01/19 10:02:47;;;;;;;6.80;6.20;;;2.40;99.90;;;3.59;66.58;98002.97;5222892;28;20214;-72
2021/01/19 10:05:22;;;;;;;7.33;6.63;;;2.40;99.90;;;3.70;63.48;97995.44;5222306;28;20206;-73
2021/01/19 10:07:54;;;;;;;6.40;5.70;;;2.30;99.90;;;3.79;63.35;97993.69;5223214;28;20211;-73
2021/01/19 10:10:34;;;;;;;7.30;6.53;;;2.30;99.90;;;3.65;64.66;97989.97;5222202;28;20218;-73
2021/01/19 10:13:07;;;;;;;6.83;6.13;;;2.40;99.90;;;3.63;65.67;97972.91;5223064;28;20234;-73
2021/01/19 10:15:40;;;;;;;8.37;6.27;;;2.40;99.90;;;3.66;65.54;97958.88;5222799;28;20631;-73
2021/01/19 10:18:12;;;;;;;6.87;6.27;;;2.40;99.90;;;3.62;65.40;97956.88;5208798;28;20651;-72
2021/01/19 10:20:50;;;;;;;8.00;7.20;;;2.40;99.90;;;3.66;65.35;97955.47;5220951;28;20222;-73
2021/01/19 10:23:28;;;;;;;7.13;6.53;;;2.40;99.90;;;3.65;66.05;97946.13;5222773;28;20765;-72
2021/01/19 10:26:10;;;;;;;7.13;6.53;;;2.40;99.90;;;3.64;64.42;97946.91;5224933;28;20208;-71
2021/01/19 10:28:44;;;;;;;7.70;6.80;;;2.40;99.90;;;3.51;64.82;97937.38;5224259;28;20230;-72
2021/01/19 10:31:19;;;;;;;9.73;8.57;;;2.40;99.90;;;3.53;65.02;97936.75;5221874;28;20692;-73
2021/01/19 10:34:02;;;;;;;12.97;11.30;;;2.40;99.90;;;3.61;65.01;97935.78;5218517;28;20223;-73
2021/01/19 10:36:37;;;;;;;9.50;8.60;;;2.50;99.90;;;3.71;65.34;97931.50;5226316;28;20647;-74
2021/01/19 10:39:10;;;;;;;8.00;7.20;;;2.60;99.90;;;3.77;64.81;97932.00;5226834;28;20619;-72
2021/01/19 10:41:42;;;;;;;10.33;7.40;;;2.70;99.90;;;3.66;64.09;97927.69;5225570;28;20724;-74
2021/01/19 10:44:15;;;;;;;8.00;7.20;;;2.60;99.90;;;3.74;64.29;97930.09;5223037;28;20614;-72
2021/01/19 10:46:47;;;;;;;7.20;6.60;;;2.60;99.90;;;3.76;64.60;97925.19;5220318;28;20207;-74
2021/01/19 10:49:19;;;;;;;6.90;6.23;;;2.60;99.90;;;3.74;64.94;97920.00;5224930;28;20579;-74
2021/01/19 10:51:52;;;;;;;7.17;6.53;;;2.70;99.90;;;3.71;64.77;97916.31;5217949;28;20220;-74
2021/01/19 10:54:25;;;;;;;8.30;6.80;;;2.70;99.90;;;3.79;64.86;97893.47;5221311;28;20295;-75
2021/01/19 10:57:03;;;;;;;8.63;7.17;;;2.70;99.90;;;3.87;64.26;97901.69;5224005;28;20211;-74
2021/01/19 10:59:37;;;;;;;7.53;6.73;;;2.60;99.90;;;3.87;64.68;97894.09;5222004;28;20584;-74
2021/01/19 11:02:09;;;;;;;7.27;6.57;;;2.70;99.90;;;3.85;64.95;97880.44;5223248;28;20274;-74
2021/01/19 11:04:41;;;;;;;7.33;6.63;;;2.80;99.90;;;3.88;64.85;97880.69;5223728;28;20200;-73
2021/01/19 11:07:14;;;;;;;8.37;7.57;;;2.80;99.90;;;3.96;63.11;97868.69;5220440;28;20712;-73
2021/01/19 11:09:46;;;;;;;7.83;7.23;;;2.90;99.90;;;3.93;64.58;97859.22;5223134;28;20660;-78